Time;durP1;ratioP1;P1;durP2;ratioP2;P2;SDS_P1;SDS_P2;PMS_P1;PMS_P2;Temp;Humidity;BMP_temperature;BMP_pressure;BME280_temperature;BME280_humidity;BME280_pressure;Samples;Min_cycle;Max_cycle;Signal;HPM_P1;HPM_P2
2022/03/03 00:00:23;;;;;;;8.10;5.80;;;21.80;64.00;;;;;;7838124;28;20174;-49
2022/03/03 00:04:09;;;;;;;9.90;6.40;;;21.80;64.00;;;;;;7840911;28;20220;-46
2022/03/03 00:07:54;;;;;;;9.48;5.95;;;21.70;63.90;;;;;;7838729;28;20313;-45
2022/03/03 00:11:40;;;;;;;7.22;5.60;;;21.70;63.70;;;;;;7843464;28;20668;-45
2022/03/03 00:15:25;;;;;;;8.60;5.72;;;21.70;63.80;;;;;;7848262;28;20693;-46
2022/03/03 00:19:11;;;;;;;11.30;5.72;;;21.70;63.80;;;;;;7848034;28;20177;-45
2022/03/03 00:22:56;;;;;;;10.00;5.97;;;21.60;63.80;;;;;;7848115;28;20622;-45
2022/03/03 00:26:42;;;;;;;7.90;5.60;;;21.60;63.70;;;;;;7848060;28;20583;-45
2022/03/03 00:30:27;;;;;;;10.30;5.95;;;21.60;63.70;;;;;;7847884;28;20525;-45
2022/03/03 00:34:13;;;;;;;7.75;5.80;;;21.60;63.60;;;;;;7848048;28;20178;-45
2022/03/03 00:37:59;;;;;;;9.30;6.00;;;21.60;63.60;;;;;;7848008;28;20265;-45
2022/03/03 00:41:44;;;;;;;8.27;5.90;;;21.50;63.50;;;;;;7847532;28;20331;-45
2022/03/03 00:45:30;;;;;;;7.78;5.70;;;21.50;63.50;;;;;;7847866;28;20213;-45
2022/03/03 00:49:15;;;;;;;7.72;5.65;;;21.50;63.50;;;;;;7847647;28;20189;-47
2022/03/03 00:53:01;;;;;;;8.45;6.05;;;21.40;63.40;;;;;;7847735;28;20194;-45
2022/03/03 00:56:47;;;;;;;7.80;5.38;;;21.40;63.30;;;;;;7847794;28;20209;-47
2022/03/03 01:00:32;;;;;;;8.35;5.80;;;21.40;63.20;;;;;;7847352;28;20343;-45
2022/03/03 01:04:19;;;;;;;8.95;5.68;;;21.40;63.20;;;;;;7847445;28;20213;-45
2022/03/03 01:08:08;;;;;;;7.90;5.90;;;21.40;63.30;;;;;;7847729;28;20177;-45
2022/03/03 01:11:55;;;;;;;8.65;6.07;;;21.30;63.20;;;;;;7847215;28;20186;-45
2022/03/03 01:15:40;;;;;;;7.57;5.85;;;21.30;63.30;;;;;;7847643;28;20208;-46
2022/03/03 01:19:26;;;;;;;8.05;6.18;;;21.30;63.20;;;;;;7846597;28;20182;-47
2022/03/03 01:23:11;;;;;;;8.65;6.10;;;21.30;63.20;;;;;;7843398;28;20696;-47
2022/03/03 01:26:57;;;;;;;7.95;6.45;;;21.20;63.20;;;;;;7842659;28;20214;-45
2022/03/03 01:30:42;;;;;;;8.10;5.97;;;21.20;63.10;;;;;;7842471;28;20220;-46
2022/03/03 01:34:29;;;;;;;8.68;6.25;;;21.20;63.10;;;;;;7842769;28;20193;-50
2022/03/03 01:38:14;;;;;;;9.98;7.00;;;21.10;63.10;;;;;;7842610;28;20633;-46
2022/03/03 01:42:00;;;;;;;9.30;7.00;;;21.10;63.10;;;;;;7842405;28;20221;-47
2022/03/03 01:45:45;;;;;;;9.48;6.20;;;21.10;62.90;;;;;;7842168;28;20308;-46
2022/03/03 01:49:31;;;;;;;9.65;6.07;;;21.10;63.00;;;;;;7841777;28;20166;-47
2022/03/03 01:53:16;;;;;;;9.30;6.47;;;21.10;63.10;;;;;;7841911;28;20217;-47
2022/03/03 01:57:02;;;;;;;8.48;6.57;;;21.00;63.00;;;;;;7841765;28;20201;-46
2022/03/03 02:00:50;;;;;;;10.60;6.43;;;21.00;62.80;;;;;;7841219;28;20197;-47
2022/03/03 02:04:39;;;;;;;8.07;6.03;;;20.90;62.60;;;;;;7841595;28;20206;-48
2022/03/03 02:08:25;;;;;;;9.50;6.65;;;20.90;62.70;;;;;;7843228;28;20268;-46
2022/03/03 02:12:10;;;;;;;10.57;7.35;;;20.90;62.70;;;;;;7841374;28;20239;-47
2022/03/03 02:15:56;;;;;;;8.60;6.28;;;20.80;62.50;;;;;;7841111;28;20178;-46
2022/03/03 02:19:42;;;;;;;9.50;6.78;;;20.80;62.50;;;;;;7840725;28;20205;-46
2022/03/03 02:23:27;;;;;;;9.98;6.93;;;20.80;62.50;;;;;;7840750;28;20682;-46
2022/03/03 02:27:13;;;;;;;9.90;6.72;;;20.70;63.40;;;;;;7840630;28;20575;-45
2022/03/03 02:30:58;;;;;;;8.98;6.55;;;20.70;63.70;;;;;;7840272;28;20190;-45
2022/03/03 02:34:48;;;;;;;10.60;7.68;;;20.70;61.90;;;;;;7840257;28;20193;-45
2022/03/03 02:38:34;;;;;;;10.75;7.63;;;20.60;61.70;;;;;;7840368;28;20173;-45
2022/03/03 02:42:19;;;;;;;10.52;7.30;;;20.70;62.10;;;;;;7839971;28;20206;-47
2022/03/03 02:46:06;;;;;;;12.43;8.55;;;20.60;62.30;;;;;;7840041;28;20210;-47
2022/03/03 02:49:51;;;;;;;9.18;6.45;;;20.60;61.30;;;;;;7839804;28;20632;-47
2022/03/03 02:53:37;;;;;;;11.50;7.82;;;20.60;62.10;;;;;;7839855;28;20571;-45
2022/03/03 03:01:26;;;;;;;12.18;8.35;;;20.50;61.10;;;;;;7839313;28;20237;-45
2022/03/03 03:05:12;;;;;;;10.73;8.20;;;20.50;60.60;;;;;;7839535;28;20213;-46
2022/03/03 03:08:57;;;;;;;9.40;7.65;;;20.50;60.20;;;;;;7839371;28;20651;-46
2022/03/03 03:12:43;;;;;;;10.70;8.18;;;20.50;60.20;;;;;;7839003;28;20206;-47
2022/03/03 03:16:28;;;;;;;13.50;8.85;;;20.40;60.20;;;;;;7839222;28;20182;-45
2022/03/03 03:20:14;;;;;;;12.35;8.13;;;20.40;60.10;;;;;;7838904;28;20185;-47
2022/03/03 03:23:59;;;;;;;10.38;8.15;;;20.40;60.10;;;;;;7838990;28;20618;-46
2022/03/03 03:27:45;;;;;;;13.73;8.95;;;20.40;59.90;;;;;;7838993;28;20668;-45
2022/03/03 03:31:31;;;;;;;13.13;9.38;;;20.40;59.70;;;;;;7838595;28;20185;-46
2022/03/03 03:35:16;;;;;;;11.38;8.48;;;20.30;59.70;;;;;;7838799;28;20267;-45
2022/03/03 03:39:02;;;;;;;11.45;7.95;;;20.30;59.50;;;;;;7838688;28;20178;-45
2022/03/03 03:42:47;;;;;;;12.52;8.50;;;20.30;59.70;;;;;;7838552;28;20212;-46
2022/03/03 03:46:33;;;;;;;12.32;8.50;;;20.30;59.50;;;;;;7838152;28;20202;-46
2022/03/03 03:50:18;;;;;;;12.10;8.63;;;20.30;59.40;;;;;;7838450;28;20174;-45
2022/03/03 03:54:04;;;;;;;13.30;8.93;;;20.30;59.40;;;;;;7838442;28;20205;-46
2022/03/03 03:57:49;;;;;;;10.75;8.18;;;20.20;59.50;;;;;;7838436;28;20186;-47
2022/03/03 04:01:35;;;;;;;10.15;8.20;;;20.20;59.40;;;;;;7838033;28;20347;-46
2022/03/03 04:05:21;;;;;;;11.68;8.07;;;20.20;59.30;;;;;;7837992;28;20304;-47
2022/03/03 04:09:06;;;;;;;12.45;8.38;;;20.20;59.50;;;;;;7844276;28;20552;-47
2022/03/03 04:12:52;;;;;;;12.35;8.27;;;20.20;59.50;;;;;;7856452;28;20244;-45
2022/03/03 04:16:37;;;;;;;12.23;8.93;;;20.20;59.50;;;;;;7837948;28;20204;-46
2022/03/03 04:20:23;;;;;;;14.98;8.40;;;20.10;59.50;;;;;;7836249;28;20178;-46
2022/03/03 04:24:10;;;;;;;11.93;8.27;;;20.10;59.40;;;;;;7837120;28;20663;-47
2022/03/03 04:27:55;;;;;;;11.95;8.65;;;20.10;59.40;;;;;;7844482;28;20178;-47
2022/03/03 04:31:41;;;;;;;10.63;8.02;;;20.10;59.40;;;;;;7847393;28;20248;-47
2022/03/03 04:35:26;;;;;;;12.07;7.97;;;20.10;59.40;;;;;;7855409;28;20197;-46
2022/03/03 04:39:13;;;;;;;12.27;8.15;;;20.10;59.40;;;;;;7838704;28;20185;-46
2022/03/03 04:42:58;;;;;;;14.00;8.38;;;20.00;59.30;;;;;;7862807;28;20576;-46
2022/03/03 04:46:44;;;;;;;12.07;8.10;;;20.00;59.30;;;;;;7848467;28;20240;-47
2022/03/03 04:50:30;;;;;;;12.40;8.60;;;20.10;59.30;;;;;;7858303;28;20568;-46
2022/03/03 04:54:18;;;;;;;11.15;7.63;;;20.00;59.40;;;;;;7836796;28;20253;-45
2022/03/03 04:58:03;;;;;;;13.38;8.48;;;20.00;59.20;;;;;;7840120;28;20170;-47
2022/03/03 05:01:52;;;;;;;11.00;8.00;;;20.00;59.20;;;;;;7842644;28;20221;-46
2022/03/03 05:05:38;;;;;;;11.20;8.05;;;20.00;59.20;;;;;;7851310;28;20210;-46
2022/03/03 05:09:23;;;;;;;10.10;7.90;;;20.00;59.20;;;;;;7842967;28;20252;-45
2022/03/03 05:13:09;;;;;;;10.75;7.75;;;20.00;59.20;;;;;;7861851;28;20304;-46
2022/03/03 05:16:54;;;;;;;11.98;7.80;;;20.00;59.20;;;;;;7872819;28;20200;-47
2022/03/03 05:20:40;;;;;;;12.77;8.15;;;20.00;59.20;;;;;;7854902;28;20200;-48
2022/03/03 05:24:25;;;;;;;15.82;8.77;;;20.00;59.20;;;;;;7842432;28;20198;-46
2022/03/03 05:28:11;;;;;;;13.25;8.10;;;19.90;59.10;;;;;;7855966;28;20182;-45
2022/03/03 05:31:58;;;;;;;11.18;8.52;;;19.90;59.10;;;;;;7860592;28;20292;-45
2022/03/03 05:35:47;;;;;;;11.60;8.55;;;19.90;59.10;;;;;;7840438;28;20605;-46
2022/03/03 05:39:33;;;;;;;10.43;8.75;;;19.90;59.10;;;;;;7841430;28;20170;-47
2022/03/03 05:43:19;;;;;;;13.13;9.32;;;19.90;59.10;;;;;;7841036;28;20197;-45
2022/03/03 05:47:07;;;;;;;16.05;8.68;;;19.90;59.10;;;;;;7845818;28;20201;-46
2022/03/03 05:50:54;;;;;;;14.82;8.98;;;19.90;59.10;;;;;;7864460;28;20224;-47
2022/03/03 05:54:40;;;;;;;22.95;9.52;;;20.00;59.10;;;;;;7865941;28;20231;-47
2022/03/03 05:58:34;;;;;;;32.92;10.02;;;20.00;59.50;;;;;;7871791;28;20181;-46
2022/03/03 06:02:20;;;;;;;11.93;8.68;;;20.10;59.30;;;;;;7871571;28;20220;-45
2022/03/03 06:06:16;;;;;;;22.33;9.30;;;20.10;60.20;;;;;;7872006;28;20205;-46
2022/03/03 06:10:03;;;;;;;15.15;9.45;;;20.10;59.70;;;;;;7871281;28;20165;-46
2022/03/03 06:13:53;;;;;;;21.05;10.15;;;20.00;59.60;;;;;;7871366;28;20542;-47
2022/03/03 06:17:41;;;;;;;24.20;11.00;;;20.00;59.50;;;;;;7870829;28;20652;-47
2022/03/03 06:21:27;;;;;;;16.45;10.73;;;20.00;59.50;;;;;;7870058;28;20193;-45
2022/03/03 06:25:13;;;;;;;21.08;11.10;;;20.00;59.30;;;;;;7871555;28;20264;-45
2022/03/03 06:28:58;;;;;;;18.15;10.05;;;19.90;59.30;;;;;;7871585;28;20173;-46
2022/03/03 06:32:44;;;;;;;23.55;10.73;;;19.90;59.50;;;;;;7857735;28;20214;-46
2022/03/03 06:36:29;;;;;;;15.43;10.88;;;19.90;59.60;;;;;;7839143;28;20177;-46
2022/03/03 06:40:15;;;;;;;24.55;10.10;;;20.00;59.30;;;;;;7839462;28;20584;-46
2022/03/03 06:44:00;;;;;;;18.77;9.50;;;20.00;59.60;;;;;;7840062;28;20209;-44
2022/03/03 06:47:48;;;;;;;23.98;9.98;;;20.00;59.70;;;;;;7840006;28;20218;-45
2022/03/03 06:51:50;;;;;;;22.45;10.32;;;20.00;59.70;;;;;;7839324;28;20197;-45
2022/03/03 06:55:37;;;;;;;18.58;9.50;;;20.00;59.90;;;;;;7838796;28;20639;-45
2022/03/03 06:59:26;;;;;;;18.50;10.18;;;20.10;60.00;;;;;;7839169;28;20636;-45
2022/03/03 07:03:11;;;;;;;14.35;9.60;;;20.10;60.00;;;;;;7838923;28;20236;-45
2022/03/03 07:06:57;;;;;;;20.60;9.88;;;20.10;60.00;;;;;;7839391;28;20309;-46
2022/03/03 07:10:45;;;;;;;20.25;9.48;;;20.10;60.10;;;;;;7839137;28;20351;-46
2022/03/03 07:14:32;;;;;;;15.13;9.48;;;20.10;60.00;;;;;;7839000;28;20273;-46
2022/03/03 07:18:35;;;;;;;16.38;9.07;;;20.10;60.00;;;;;;7838187;28;20182;-47
2022/03/03 07:22:34;;;;;;;12.52;8.57;;;20.20;60.10;;;;;;7837971;28;20575;-46
2022/03/03 07:26:21;;;;;;;16.10;8.73;;;20.20;60.10;;;;;;7859343;28;20239;-47
2022/03/03 07:30:13;;;;;;;15.02;10.00;;;20.20;60.00;;;;;;7849629;28;20682;-45
2022/03/03 07:34:03;;;;;;;17.17;10.05;;;20.20;60.00;;;;;;7840468;28;20206;-45
2022/03/03 07:37:57;;;;;;;13.05;9.77;;;20.30;60.00;;;;;;7838196;28;20193;-45
2022/03/03 07:41:43;;;;;;;14.30;9.40;;;20.30;59.90;;;;;;7838189;28;20247;-46
2022/03/03 07:45:29;;;;;;;15.82;9.93;;;20.30;59.90;;;;;;7838518;28;20210;-45
2022/03/03 07:49:19;;;;;;;16.85;11.13;;;20.30;59.90;;;;;;7836449;28;20170;-45
2022/03/03 07:53:06;;;;;;;17.75;10.50;;;20.30;59.80;;;;;;7837004;28;20201;-45
2022/03/03 07:56:56;;;;;;;18.05;9.95;;;20.30;59.80;;;;;;7850686;28;20634;-45
2022/03/03 08:00:47;;;;;;;14.20;9.70;;;20.40;59.80;;;;;;7846476;28;20245;-45
2022/03/03 08:04:33;;;;;;;14.02;9.85;;;20.30;59.70;;;;;;7869113;28;20204;-46
2022/03/03 08:08:27;;;;;;;17.50;10.15;;;20.30;59.80;;;;;;7869067;28;20599;-47
2022/03/03 08:12:15;;;;;;;15.75;9.43;;;20.30;59.80;;;;;;7868953;28;20197;-46
2022/03/03 08:16:01;;;;;;;12.55;9.27;;;20.30;59.80;;;;;;7869036;28;20230;-46
2022/03/03 08:19:46;;;;;;;15.25;9.05;;;20.30;59.80;;;;;;7868842;28;20248;-46
2022/03/03 08:23:33;;;;;;;17.88;9.73;;;20.30;59.90;;;;;;7865138;28;20202;-47
2022/03/03 08:27:20;;;;;;;15.88;9.15;;;20.30;59.90;;;;;;7838362;28;20224;-46
2022/03/03 08:31:08;;;;;;;14.63;8.88;;;20.30;59.90;;;;;;7837725;28;20221;-45
2022/03/03 08:35:13;;;;;;;13.35;8.95;;;20.30;59.80;;;;;;7844087;28;20178;-46
2022/03/03 08:39:05;;;;;;;14.18;9.30;;;20.30;59.80;;;;;;7843938;28;20188;-45
2022/03/03 08:42:56;;;;;;;16.73;8.90;;;20.30;59.80;;;;;;7843527;28;20213;-45
2022/03/03 08:46:42;;;;;;;18.95;9.52;;;20.30;60.00;;;;;;7843863;28;20245;-45
2022/03/03 08:50:29;;;;;;;21.35;9.60;;;20.30;60.00;;;;;;7842566;28;20182;-46
2022/03/03 08:54:15;;;;;;;20.90;11.10;;;20.40;60.10;;;;;;7840916;28;20185;-45
2022/03/03 08:58:01;;;;;;;19.02;11.93;;;20.30;59.90;;;;;;7843169;28;20269;-46
2022/03/03 09:01:48;;;;;;;23.95;12.70;;;20.30;59.80;;;;;;7842902;28;20271;-45
2022/03/03 09:05:33;;;;;;;19.73;11.85;;;20.30;59.70;;;;;;7843462;28;20228;-45
2022/03/03 09:09:19;;;;;;;17.60;12.07;;;20.30;59.70;;;;;;7843144;28;20253;-46
2022/03/03 09:13:04;;;;;;;17.42;11.07;;;20.40;59.90;;;;;;7843069;28;20190;-46
2022/03/03 09:16:50;;;;;;;17.98;12.15;;;20.40;59.80;;;;;;7843171;28;20215;-47
2022/03/03 09:20:36;;;;;;;20.55;12.45;;;20.30;59.70;;;;;;7873261;28;20662;-45
2022/03/03 09:24:23;;;;;;;19.83;11.40;;;20.30;59.60;;;;;;7873618;28;20202;-46
2022/03/03 09:28:09;;;;;;;16.08;11.05;;;20.30;59.70;;;;;;7873620;28;20876;-45
2022/03/03 09:31:55;;;;;;;17.63;11.73;;;20.30;59.70;;;;;;7873103;28;20224;-47
2022/03/03 09:35:40;;;;;;;21.08;12.48;;;20.30;59.70;;;;;;7870626;28;20181;-45
2022/03/03 09:39:26;;;;;;;19.15;11.38;;;20.30;59.50;;;;;;7873118;28;20185;-46
2022/03/03 09:43:11;;;;;;;18.90;11.05;;;20.30;59.60;;;;;;7845310;28;20280;-47
2022/03/03 09:46:57;;;;;;;19.08;11.43;;;20.30;59.80;;;;;;7841588;28;20620;-45
2022/03/03 09:50:42;;;;;;;18.67;11.73;;;20.30;59.80;;;;;;7841688;28;20974;-46
2022/03/03 09:54:28;;;;;;;17.95;10.98;;;20.30;59.80;;;;;;7841824;28;20189;-47
2022/03/03 09:58:14;;;;;;;17.33;10.90;;;20.30;59.80;;;;;;7841419;28;20232;-46
2022/03/03 10:02:04;;;;;;;19.77;10.73;;;20.30;59.90;;;;;;7841128;28;20228;-48
2022/03/03 10:05:52;;;;;;;19.95;10.60;;;20.40;60.10;;;;;;7841395;28;20248;-46
2022/03/03 10:13:52;;;;;;;20.17;10.02;;;20.30;60.20;;;;;;7841737;28;20229;-48
2022/03/03 10:17:38;;;;;;;14.15;10.30;;;20.30;60.00;;;;;;7841262;28;20170;-45
2022/03/03 10:21:26;;;;;;;14.70;9.50;;;20.30;59.90;;;;;;7840732;28;20226;-47
2022/03/03 10:25:14;;;;;;;19.38;10.38;;;20.30;59.90;;;;;;7840694;28;20270;-48
2022/03/03 10:29:00;;;;;;;16.48;10.88;;;20.30;59.70;;;;;;7840735;28;20184;-46
2022/03/03 10:32:47;;;;;;;15.68;10.35;;;20.30;60.30;;;;;;7840768;28;20210;-47
2022/03/03 10:36:36;;;;;;;15.20;9.85;;;20.30;59.70;;;;;;7839896;28;20182;-45
2022/03/03 10:40:22;;;;;;;16.52;8.88;;;20.30;59.90;;;;;;7841649;28;20185;-47
2022/03/03 10:44:16;;;;;;;15.68;9.45;;;20.30;60.10;;;;;;7840250;28;20209;-45
2022/03/03 10:48:04;;;;;;;24.20;9.75;;;20.30;60.10;;;;;;7840158;28;20186;-46
2022/03/03 10:51:50;;;;;;;20.90;9.68;;;20.30;60.00;;;;;;7839934;28;20190;-45
2022/03/03 10:55:35;;;;;;;17.80;9.32;;;20.30;60.00;;;;;;7839735;28;20185;-46
2022/03/03 10:59:23;;;;;;;15.18;8.80;;;20.30;59.50;;;;;;7844989;28;20188;-46
2022/03/03 11:03:10;;;;;;;16.95;9.40;;;20.30;59.40;;;;;;7870518;28;20217;-46
2022/03/03 11:06:57;;;;;;;19.05;9.27;;;20.30;59.60;;;;;;7870684;28;20541;-45
2022/03/03 11:10:44;;;;;;;20.15;10.02;;;20.30;60.70;;;;;;7870754;28;20177;-45
2022/03/03 11:14:30;;;;;;;21.98;9.07;;;20.30;59.90;;;;;;7840197;28;20256;-45
2022/03/03 11:18:19;;;;;;;17.10;8.90;;;20.30;59.50;;;;;;7839431;28;20303;-47
2022/03/03 11:22:05;;;;;;;29.38;12.38;;;20.30;60.10;;;;;;7846878;28;20197;-46
2022/03/03 11:25:52;;;;;;;20.00;12.10;;;20.40;60.70;;;;;;7865291;28;20206;-46
2022/03/03 11:29:38;;;;;;;30.02;12.65;;;20.30;61.00;;;;;;7838682;28;20201;-47
2022/03/03 11:33:30;;;;;;;22.67;11.38;;;20.40;60.30;;;;;;7838955;28;20635;-46
2022/03/03 11:37:24;;;;;;;21.30;10.65;;;20.30;59.50;;;;;;7836680;28;20271;-45
2022/03/03 11:41:10;;;;;;;27.80;10.70;;;20.30;60.10;;;;;;7838368;28;20218;-45
2022/03/03 11:44:57;;;;;;;19.85;10.40;;;20.30;59.90;;;;;;7868970;28;20209;-47
2022/03/03 11:48:42;;;;;;;16.88;9.95;;;20.40;59.40;;;;;;7860785;28;20532;-46
2022/03/03 11:52:28;;;;;;;21.40;9.38;;;20.30;59.30;;;;;;7848867;28;20206;-47
2022/03/03 11:56:14;;;;;;;19.38;8.73;;;20.30;59.20;;;;;;7838017;28;20182;-46
2022/03/03 12:00:05;;;;;;;18.90;10.60;;;20.30;59.40;;;;;;7837905;28;20170;-47
2022/03/03 12:04:02;;;;;;;16.60;8.98;;;20.30;59.30;;;;;;7846440;28;20232;-46
2022/03/03 12:07:47;;;;;;;20.50;9.23;;;20.30;59.20;;;;;;7837648;28;20186;-46
2022/03/03 12:11:36;;;;;;;14.85;8.82;;;20.30;59.10;;;;;;7837641;28;20242;-45
2022/03/03 12:15:22;;;;;;;14.95;8.90;;;20.30;58.90;;;;;;7856639;28;20246;-45
2022/03/03 12:19:09;;;;;;;13.07;8.25;;;20.30;59.00;;;;;;7858960;28;20181;-46
2022/03/03 12:23:18;;;;;;;14.25;8.82;;;20.30;58.80;;;;;;7837662;28;20213;-46
2022/03/03 12:27:09;;;;;;;13.88;8.02;;;20.40;59.30;;;;;;7838035;28;20210;-46
2022/03/03 12:30:55;;;;;;;17.60;8.77;;;20.40;59.60;;;;;;7857334;28;20231;-46
2022/03/03 12:34:44;;;;;;;13.82;8.35;;;20.40;59.10;;;;;;7869256;28;20189;-47
2022/03/03 12:38:30;;;;;;;12.93;8.38;;;20.40;59.20;;;;;;7862830;28;20196;-45
2022/03/03 12:42:27;;;;;;;15.90;8.05;;;20.40;59.30;;;;;;7837099;28;20564;-46
2022/03/03 12:46:12;;;;;;;17.90;7.72;;;20.40;59.30;;;;;;7837499;28;20210;-46
2022/03/03 12:50:04;;;;;;;14.43;9.00;;;20.40;59.30;;;;;;7836333;28;20182;-47
2022/03/03 12:53:52;;;;;;;16.60;8.45;;;20.40;59.40;;;;;;7837206;28;20664;-48
2022/03/03 12:57:39;;;;;;;13.27;7.90;;;20.40;59.30;;;;;;7837048;28;20548;-47
2022/03/03 13:01:25;;;;;;;14.32;8.07;;;20.40;59.40;;;;;;7838555;28;20221;-46
2022/03/03 13:05:11;;;;;;;11.23;8.10;;;20.40;59.70;;;;;;7838418;28;20224;-46
2022/03/03 13:09:02;;;;;;;15.55;8.23;;;20.40;59.60;;;;;;7854224;28;20538;-47
2022/03/03 13:12:48;;;;;;;11.82;7.25;;;20.50;59.80;;;;;;7847943;28;20210;-46
2022/03/03 13:16:40;;;;;;;12.55;6.90;;;20.50;59.90;;;;;;7837550;28;20284;-46
2022/03/03 13:20:31;;;;;;;19.38;7.28;;;20.50;60.70;;;;;;7842155;28;20598;-45
2022/03/03 13:24:24;;;;;;;17.88;7.45;;;20.50;61.10;;;;;;7842750;28;20305;-46
2022/03/03 13:28:23;;;;;;;14.73;8.15;;;20.50;60.60;;;;;;7842603;28;20517;-46
2022/03/03 13:32:13;;;;;;;22.38;8.38;;;20.50;60.00;;;;;;7840036;28;20221;-45
2022/03/03 13:35:58;;;;;;;16.60;8.43;;;20.50;60.10;;;;;;7839134;28;20648;-46
2022/03/03 13:39:44;;;;;;;20.88;8.43;;;20.50;60.20;;;;;;7839406;28;20613;-45
2022/03/03 13:43:30;;;;;;;20.52;7.45;;;20.50;59.60;;;;;;7840485;28;20200;-47
2022/03/03 13:47:24;;;;;;;15.43;7.90;;;20.50;59.50;;;;;;7865284;28;20201;-47
2022/03/03 13:51:10;;;;;;;14.48;7.75;;;20.50;59.30;;;;;;7840219;28;20280;-46
2022/03/03 13:55:03;;;;;;;19.45;7.22;;;20.50;59.80;;;;;;7849765;28;20651;-46
2022/03/03 13:59:09;;;;;;;24.65;8.02;;;20.50;60.20;;;;;;7872180;28;20185;-46
2022/03/03 14:03:00;;;;;;;18.48;8.45;;;20.50;59.90;;;;;;7854640;28;20274;-46
2022/03/03 14:06:46;;;;;;;13.82;7.68;;;20.50;59.60;;;;;;7840599;28;20877;-46
2022/03/03 14:11:07;;;;;;;22.30;7.30;;;20.50;59.80;;;;;;7840483;28;20547;-46
2022/03/03 14:14:53;;;;;;;12.57;6.00;;;20.50;60.20;;;;;;7841084;28;20185;-46
2022/03/03 14:18:39;;;;;;;11.32;6.68;;;20.60;62.50;;;;;;7840648;28;20181;-46
2022/03/03 14:22:25;;;;;;;14.43;6.38;;;20.70;62.50;;;;;;7839905;28;20198;-46
2022/03/03 14:26:11;;;;;;;18.60;6.05;;;20.80;62.30;;;;;;7841283;28;20209;-46
2022/03/03 14:29:57;;;;;;;12.18;6.22;;;20.90;62.90;;;;;;7839643;28;20177;-49
2022/03/03 14:33:43;;;;;;;19.58;6.60;;;21.00;62.90;;;;;;7840401;28;20281;-46
2022/03/03 14:37:28;;;;;;;14.60;5.45;;;21.10;63.10;;;;;;7840556;28;20181;-46
2022/03/03 14:41:14;;;;;;;11.85;5.80;;;21.20;63.10;;;;;;7840238;28;20229;-46
2022/03/03 14:45:00;;;;;;;17.77;5.80;;;21.30;63.00;;;;;;7841388;28;20927;-47
2022/03/03 14:48:46;;;;;;;8.93;5.30;;;21.30;63.00;;;;;;7839893;28;20544;-46
2022/03/03 14:52:31;;;;;;;16.50;5.68;;;21.40;62.80;;;;;;7866265;28;20201;-46
2022/03/03 14:56:17;;;;;;;15.93;5.82;;;21.50;62.80;;;;;;7871070;28;20238;-45
2022/03/03 15:00:05;;;;;;;10.30;5.60;;;21.60;62.80;;;;;;7842062;28;20579;-47
2022/03/03 15:03:50;;;;;;;17.98;5.95;;;21.60;62.70;;;;;;7839721;28;20228;-45
2022/03/03 15:07:36;;;;;;;11.18;5.32;;;21.60;62.90;;;;;;7839675;28;20205;-47
2022/03/03 15:11:21;;;;;;;15.20;5.40;;;21.70;63.10;;;;;;7839118;28;20194;-45
2022/03/03 15:15:07;;;;;;;15.07;5.90;;;21.70;63.10;;;;;;7839333;28;20222;-47
2022/03/03 15:18:53;;;;;;;15.82;5.55;;;21.70;63.00;;;;;;7838638;28;20305;-46
2022/03/03 15:22:39;;;;;;;9.63;5.72;;;21.70;63.00;;;;;;7859872;28;20606;-46
2022/03/03 15:26:24;;;;;;;16.10;4.85;;;21.70;63.10;;;;;;7853027;28;20347;-46
2022/03/03 15:30:11;;;;;;;11.75;5.68;;;21.70;63.10;;;;;;7855553;28;20181;-45
2022/03/03 15:38:00;;;;;;;13.70;5.50;;;21.70;63.10;;;;;;7865203;28;20651;-45
2022/03/03 15:41:48;;;;;;;11.88;5.50;;;21.70;63.10;;;;;;7838112;28;20575;-47
2022/03/03 15:45:34;;;;;;;10.52;5.40;;;21.70;63.20;;;;;;7839390;28;20742;-45
2022/03/03 15:49:21;;;;;;;27.25;16.60;;;21.60;63.20;;;;;;7865267;28;20543;-46
2022/03/03 15:53:08;;;;;;;53.33;23.23;;;21.60;56.90;;;;;;7869357;28;20196;-46
2022/03/03 15:56:54;;;;;;;59.65;32.05;;;21.40;58.50;;;;;;7869383;28;20192;-45
2022/03/03 16:00:40;;;;;;;53.70;29.02;;;21.30;60.70;;;;;;7848118;28;20273;-48
2022/03/03 16:04:26;;;;;;;55.20;27.88;;;21.40;61.10;;;;;;7837723;28;20205;-46
2022/03/03 16:08:15;;;;;;;51.92;27.38;;;21.50;61.40;;;;;;7837906;28;20186;-47
2022/03/03 16:12:00;;;;;;;47.97;25.88;;;21.40;61.50;;;;;;7837808;28;20202;-47
2022/03/03 16:15:46;;;;;;;46.88;23.35;;;21.50;61.70;;;;;;7838116;28;20196;-46
2022/03/03 16:19:32;;;;;;;43.22;23.33;;;21.50;61.80;;;;;;7837085;28;20675;-49
2022/03/03 16:23:18;;;;;;;39.47;20.92;;;21.50;62.10;;;;;;7836341;28;20701;-47
2022/03/03 16:27:03;;;;;;;36.97;20.38;;;21.50;62.30;;;;;;7837708;28;20548;-46
2022/03/03 16:30:50;;;;;;;33.50;18.23;;;21.50;62.40;;;;;;7837038;28;20560;-47
2022/03/03 16:34:46;;;;;;;34.20;18.77;;;21.60;62.50;;;;;;7837388;28;20185;-45
2022/03/03 16:38:36;;;;;;;36.83;16.80;;;21.60;62.70;;;;;;7845317;28;20730;-46
2022/03/03 16:42:22;;;;;;;28.13;15.00;;;21.60;63.00;;;;;;7837655;28;20202;-47
2022/03/03 16:46:07;;;;;;;29.27;15.35;;;21.60;63.20;;;;;;7869848;28;20200;-46
2022/03/03 16:49:53;;;;;;;24.60;13.82;;;21.70;63.50;;;;;;7863231;28;20261;-46
2022/03/03 16:53:40;;;;;;;24.15;13.32;;;21.70;64.00;;;;;;7840103;28;20285;-46
2022/03/03 16:57:26;;;;;;;25.20;12.80;;;21.80;64.40;;;;;;7843247;28;20193;-45
2022/03/03 17:01:11;;;;;;;19.02;11.93;;;21.90;64.80;;;;;;7851051;28;20212;-47
2022/03/03 17:04:57;;;;;;;21.85;10.80;;;21.90;65.20;;;;;;7873813;28;20270;-46
2022/03/03 17:08:42;;;;;;;17.92;10.77;;;22.00;65.40;;;;;;7873974;28;20208;-46
2022/03/03 17:12:29;;;;;;;25.15;11.50;;;22.10;65.80;;;;;;7864188;28;20244;-50
2022/03/03 17:16:15;;;;;;;24.40;11.40;;;22.00;62.10;;;;;;7873839;28;20639;-45
2022/03/03 17:20:00;;;;;;;24.77;10.35;;;22.00;65.50;;;;;;7865261;28;20578;-46
2022/03/03 17:23:46;;;;;;;24.23;9.82;;;22.00;65.40;;;;;;7841189;28;20910;-46
2022/03/03 17:27:32;;;;;;;16.83;9.15;;;22.10;65.80;;;;;;7843386;28;20245;-47
2022/03/03 17:31:18;;;;;;;22.08;9.02;;;22.10;65.90;;;;;;7841755;28;20545;-46
2022/03/03 17:35:05;;;;;;;17.23;8.55;;;22.20;66.20;;;;;;7842592;28;20328;-47
2022/03/03 17:38:51;;;;;;;15.38;8.57;;;22.20;66.20;;;;;;7842583;28;20185;-45
2022/03/03 17:42:36;;;;;;;13.60;8.70;;;22.20;66.30;;;;;;7841519;28;20229;-45
2022/03/03 17:46:21;;;;;;;19.00;8.38;;;22.20;66.20;;;;;;7842012;28;20205;-46
2022/03/03 17:50:07;;;;;;;16.67;8.10;;;22.20;66.30;;;;;;7843778;28;20190;-45
2022/03/03 17:53:53;;;;;;;17.45;8.30;;;22.20;66.30;;;;;;7841993;28;20194;-49
2022/03/03 17:57:39;;;;;;;14.88;8.43;;;22.20;66.50;;;;;;7841433;28;20647;-47
2022/03/03 18:01:25;;;;;;;16.38;7.57;;;22.20;66.50;;;;;;7840195;28;20352;-46
2022/03/03 18:05:11;;;;;;;18.10;7.82;;;22.20;66.60;;;;;;7839873;28;20667;-46
2022/03/03 18:08:56;;;;;;;18.10;8.20;;;22.20;66.40;;;;;;7846197;28;20607;-46
2022/03/03 18:12:42;;;;;;;21.05;9.50;;;22.10;66.20;;;;;;7840978;28;20695;-46
2022/03/03 18:16:28;;;;;;;18.27;8.15;;;22.10;66.10;;;;;;7851319;28;20201;-46
2022/03/03 18:20:13;;;;;;;17.90;7.88;;;22.10;66.20;;;;;;7840274;28;20188;-46
2022/03/03 18:23:59;;;;;;;15.10;7.63;;;22.10;66.30;;;;;;7839905;28;20201;-48
2022/03/03 18:27:48;;;;;;;25.00;7.18;;;22.10;66.30;;;;;;7840775;28;20695;-46
2022/03/03 18:31:34;;;;;;;14.43;7.75;;;22.10;66.20;;;;;;7840061;28;20237;-45
2022/03/03 18:35:20;;;;;;;14.25;7.60;;;22.10;66.30;;;;;;7840641;28;20235;-46
2022/03/03 18:39:06;;;;;;;16.38;7.18;;;22.10;66.40;;;;;;7840365;28;20190;-47
2022/03/03 18:42:52;;;;;;;23.77;7.63;;;22.10;66.40;;;;;;7839083;28;20247;-50
2022/03/03 18:46:37;;;;;;;15.15;7.20;;;22.10;66.40;;;;;;7839026;28;20214;-46
2022/03/03 18:50:23;;;;;;;20.38;7.82;;;22.10;66.40;;;;;;7840285;28;20185;-46
2022/03/03 18:54:09;;;;;;;12.98;6.50;;;22.10;66.40;;;;;;7840772;28;20193;-45
2022/03/03 18:57:55;;;;;;;16.67;6.55;;;22.20;66.50;;;;;;7839842;28;20668;-45
2022/03/03 19:01:40;;;;;;;14.15;7.03;;;22.30;66.60;;;;;;7838456;28;20224;-46
2022/03/03 19:05:27;;;;;;;18.17;6.80;;;22.30;66.60;;;;;;7839156;28;20201;-46
2022/03/03 19:09:12;;;;;;;14.05;6.53;;;22.30;66.60;;;;;;7841485;28;20170;-46
2022/03/03 19:12:58;;;;;;;14.10;6.47;;;22.40;66.80;;;;;;7869902;28;20238;-46
2022/03/03 19:16:44;;;;;;;10.75;6.32;;;22.40;66.80;;;;;;7869997;28;20193;-45
2022/03/03 19:20:30;;;;;;;23.73;6.18;;;22.50;66.70;;;;;;7869461;28;20332;-46
2022/03/03 19:24:16;;;;;;;16.30;7.30;;;22.50;67.80;;;;;;7869349;28;20181;-47
2022/03/03 19:28:01;;;;;;;14.68;6.82;;;22.60;66.90;;;;;;7841678;28;20182;-46
2022/03/03 19:34:05;;;;;;;11.38;5.90;;;22.50;66.90;;;;;;7838302;28;20205;-45
2022/03/03 19:35:53;;;;;;;15.55;6.60;;;22.50;67.00;;;;;;7838463;28;20174;-46